Time;durP1;ratioP1;P1;durP2;ratioP2;P2;SDS_P1;SDS_P2;PMS_P1;PMS_P2;Temp;Humidity;BMP_temperature;BMP_pressure;BME280_temperature;BME280_humidity;BME280_pressure;Samples;Min_cycle;Max_cycle;Signal;HPM_P1;HPM_P2
2023/05/07 00:01:54;;;;;;;19.40;13.50;;;;;;;;;;106815;1276;22627;-75
2023/05/07 00:04:36;;;;;;;;;;;;;;;;;;;;;
2023/05/07 00:07:05;;;;;;;16.40;9.50;;;;;;;;;;106849;1276;25389;-81
2023/05/07 00:09:56;;;;;;;15.00;9.80;;;;;;;;;;106901;1276;24187;-81
2023/05/07 00:12:45;;;;;;;15.70;7.90;;;;;;;;;;106869;1257;22533;-79
2023/05/07 00:15:15;;;;;;;39.30;25.70;;;;;;;;;;106876;1276;24078;-74
2023/05/07 00:18:02;;;;;;;33.50;21.40;;;;;;;;;;106914;1276;22761;-79
2023/05/07 00:20:32;;;;;;;27.10;15.70;;;;;;;;;;106871;1276;23866;-78
2023/05/07 00:22:59;;;;;;;42.30;26.40;;;;;;;;;;106854;1276;22513;-76
2023/05/07 00:25:58;;;;;;;80.00;48.10;;;;;;;;;;106890;1276;25357;-76
2023/05/07 00:28:32;;;;;;;49.30;27.60;;;;;;;;;;106881;1276;25224;-79
2023/05/07 00:31:21;;;;;;;17.40;9.40;;;;;;;;;;106879;1276;25216;-77
2023/05/07 00:33:51;;;;;;;16.40;9.10;;;;;;;;;;106896;1267;22527;-81
2023/05/07 00:36:23;;;;;;;56.70;27.20;;;;;;;;;;106891;1276;25303;-78
2023/05/07 00:38:50;;;;;;;36.90;17.90;;;;;;;;;;106878;1276;22527;-81
2023/05/07 00:41:20;;;;;;;17.90;8.90;;;;;;;;;;106858;1276;25330;-81
2023/05/07 00:43:54;;;;;;;41.00;24.00;;;;;;;;;;106865;1257;25351;-75
2023/05/07 00:47:07;;;;;;;47.90;31.70;;;;;;;;;;106848;1276;25318;-76
2023/05/07 00:49:13;;;;;;;52.90;36.10;;;;;;;;;;106867;1276;25339;-76
2023/05/07 00:51:40;;;;;;;97.40;53.10;;;;;;;;;;106869;1276;24266;-76
2023/05/07 00:54:07;;;;;;;70.40;42.60;;;;;;;;;;106854;1276;22527;-79
2023/05/07 00:56:38;;;;;;;36.10;21.40;;;;;;;;;;106900;1276;22987;-80
2023/05/07 00:59:09;;;;;;;28.70;14.10;;;;;;;;;;106869;1276;25435;-79
2023/05/07 01:01:36;;;;;;;27.90;13.40;;;;;;;;;;106908;1276;24369;-82
2023/05/07 01:04:03;;;;;;;20.90;9.40;;;;;;;;;;106890;1261;25223;-78
2023/05/07 01:06:32;;;;;;;17.60;9.10;;;;;;;;;;106853;1276;22516;-82
2023/05/07 01:09:09;;;;;;;;;;;;;;;;;;;;;
2023/05/07 01:11:47;;;;;;;18.40;10.80;;;;;;;;;;106922;1276;22532;-81
2023/05/07 01:17:12;;;;;;;15.20;8.10;;;;;;;;;;106860;1276;24210;-74
2023/05/07 01:19:45;;;;;;;12.50;7.50;;;;;;;;;;107005;1276;25278;-75
2023/05/07 01:25:13;;;;;;;45.10;31.00;;;;;;;;;;106850;1256;24339;-76
2023/05/07 01:27:43;;;;;;;45.80;34.30;;;;;;;;;;106855;1276;24329;-77
2023/05/07 01:30:13;;;;;;;18.30;11.80;;;;;;;;;;106923;1276;25578;-75
2023/05/07 01:33:03;;;;;;;20.40;15.10;;;;;;;;;;106863;1276;22669;-76
2023/05/07 01:36:03;;;;;;;18.00;13.70;;;;;;;;;;106847;1257;25427;-77
2023/05/07 01:38:39;;;;;;;19.00;12.20;;;;;;;;;;106881;1276;22630;-75
2023/05/07 01:41:10;;;;;;;22.10;12.50;;;;;;;;;;106861;1276;25343;-76
2023/05/07 01:43:57;;;;;;;15.50;9.30;;;;;;;;;;106890;1276;25224;-74
2023/05/07 01:46:44;;;;;;;45.20;17.60;;;;;;;;;;106807;1265;22547;-80
2023/05/07 01:49:34;;;;;;;97.90;44.70;;;;;;;;;;106868;1278;24188;-76
2023/05/07 01:52:04;;;;;;;137.40;64.50;;;;;;;;;;106842;1278;22627;-82
2023/05/07 01:54:52;;;;;;;37.50;22.20;;;;;;;;;;106800;1278;22599;-79
2023/05/07 01:57:24;;;;;;;27.70;15.40;;;;;;;;;;106791;1278;22528;-77
2023/05/07 01:59:53;;;;;;;16.80;10.90;;;;;;;;;;106722;1278;22790;-82
2023/05/07 02:02:20;;;;;;;15.20;8.20;;;;;;;;;;106799;1278;22653;-80
2023/05/07 02:04:47;;;;;;;20.60;10.20;;;;;;;;;;106784;1255;25413;-79
2023/05/07 02:07:15;;;;;;;22.10;11.00;;;;;;;;;;106823;1278;25577;-80
2023/05/07 02:09:46;;;;;;;17.60;9.90;;;;;;;;;;106738;1278;24425;-80
2023/05/07 02:12:18;;;;;;;15.90;8.80;;;;;;;;;;106787;1278;22625;-77
2023/05/07 02:14:55;;;;;;;14.00;8.30;;;;;;;;;;106725;1254;25715;-79
2023/05/07 02:17:25;;;;;;;14.30;7.80;;;;;;;;;;106689;1278;22527;-79
2023/05/07 02:19:52;;;;;;;13.80;7.70;;;;;;;;;;106825;1278;22489;-80
2023/05/07 02:22:20;;;;;;;18.70;8.60;;;;;;;;;;106722;1278;22527;-76
2023/05/07 02:24:59;;;;;;;;;;;;;;;;;;;;;
2023/05/07 02:28:07;;;;;;;17.00;8.10;;;;;;;;;;106744;1273;22523;-82
2023/05/07 02:31:01;;;;;;;;;;;;;;;;;;;;;
2023/05/07 02:33:37;;;;;;;13.30;7.80;;;;;;;;;;106825;1278;22532;-80
2023/05/07 02:36:45;;;;;;;14.50;8.70;;;;;;;;;;106782;1277;25271;-80
2023/05/07 02:39:22;;;;;;;14.20;8.40;;;;;;;;;;106851;1278;22739;-75
2023/05/07 02:41:52;;;;;;;15.90;8.50;;;;;;;;;;106822;1278;24209;-80
2023/05/07 02:44:22;;;;;;;15.60;7.90;;;;;;;;;;106827;1278;25349;-80
2023/05/07 02:46:54;;;;;;;14.80;8.00;;;;;;;;;;106810;1260;24216;-76
2023/05/07 02:49:41;;;;;;;18.30;8.10;;;;;;;;;;106805;1278;24193;-77
2023/05/07 02:52:12;;;;;;;16.90;8.60;;;;;;;;;;106802;1278;22540;-78
2023/05/07 02:54:42;;;;;;;16.90;8.40;;;;;;;;;;106764;1278;22540;-79
2023/05/07 02:57:12;;;;;;;16.10;7.80;;;;;;;;;;106801;1260;24225;-81
2023/05/07 02:59:39;;;;;;;13.80;7.70;;;;;;;;;;106772;1276;22532;-82
2023/05/07 03:02:18;;;;;;;;;;;;;;;;;;;;;
2023/05/07 03:04:46;;;;;;;14.10;7.30;;;;;;;;;;106814;1278;25284;-76
2023/05/07 03:07:16;;;;;;;15.00;6.90;;;;;;;;;;106828;1261;24199;-82
2023/05/07 03:09:45;;;;;;;13.00;6.40;;;;;;;;;;106823;1278;25318;-79
2023/05/07 03:12:12;;;;;;;13.80;6.30;;;;;;;;;;106763;1278;25230;-76
2023/05/07 03:14:59;;;;;;;15.30;7.00;;;;;;;;;;106799;1278;24035;-78
2023/05/07 03:17:50;;;;;;;13.00;6.80;;;;;;;;;;106797;1258;22649;-79
2023/05/07 03:20:19;;;;;;;13.60;6.70;;;;;;;;;;106832;1278;24192;-79
2023/05/07 03:22:46;;;;;;;11.60;6.40;;;;;;;;;;106805;1278;24218;-76
2023/05/07 03:25:33;;;;;;;11.30;6.60;;;;;;;;;;106779;1278;22597;-79
2023/05/07 03:28:00;;;;;;;11.40;6.00;;;;;;;;;;106856;1278;25346;-77
2023/05/07 03:30:42;;;;;;;9.60;5.30;;;;;;;;;;106812;1278;22546;-81
2023/05/07 03:33:11;;;;;;;12.10;5.80;;;;;;;;;;106822;1278;25475;-80
2023/05/07 03:36:01;;;;;;;11.60;6.30;;;;;;;;;;106843;1278;22513;-81
2023/05/07 03:38:50;;;;;;;11.70;6.50;;;;;;;;;;106804;1257;24270;-77
2023/05/07 03:41:40;;;;;;;19.40;7.70;;;;;;;;;;106796;1278;22671;-78
2023/05/07 03:44:07;;;;;;;10.90;6.40;;;;;;;;;;106522;1282;22643;-80
2023/05/07 03:46:40;;;;;;;14.40;6.90;;;;;;;;;;106360;1282;22563;-75
2023/05/07 03:49:08;;;;;;;12.10;6.80;;;;;;;;;;106437;1265;24232;-81
2023/05/07 03:51:35;;;;;;;12.00;6.80;;;;;;;;;;106473;1282;25373;-79
2023/05/07 03:54:23;;;;;;;18.80;7.30;;;;;;;;;;106292;1282;23878;-77
2023/05/07 03:56:52;;;;;;;14.10;7.60;;;;;;;;;;106398;1282;22516;-76
2023/05/07 03:59:22;;;;;;;17.40;8.10;;;;;;;;;;106403;1267;25385;-78
2023/05/07 04:01:49;;;;;;;19.80;8.80;;;;;;;;;;106412;1282;22633;-80
2023/05/07 04:04:17;;;;;;;21.00;9.80;;;;;;;;;;106488;1282;24337;-75
2023/05/07 04:06:44;;;;;;;19.40;9.10;;;;;;;;;;106480;1282;22600;-79
2023/05/07 04:09:32;;;;;;;17.30;8.30;;;;;;;;;;106406;1264;25415;-75
2023/05/07 04:12:02;;;;;;;15.80;8.60;;;;;;;;;;106510;1281;24338;-82
2023/05/07 04:14:38;;;;;;;21.00;8.00;;;;;;;;;;106484;1278;26908;-76
2023/05/07 04:17:26;;;;;;;21.70;10.80;;;;;;;;;;106824;1278;24923;-76
2023/05/07 04:20:03;;;;;;;21.70;14.20;;;;;;;;;;106785;1270;22564;-80
2023/05/07 04:22:39;;;;;;;17.90;10.40;;;;;;;;;;106797;1278;24220;-80
2023/05/07 04:25:07;;;;;;;19.40;12.20;;;;;;;;;;106805;1273;23127;-78
2023/05/07 04:27:50;;;;;;;20.50;10.50;;;;;;;;;;106774;1278;25338;-79
2023/05/07 04:30:20;;;;;;;15.70;9.90;;;;;;;;;;106804;1278;22832;-80
2023/05/07 04:33:07;;;;;;;18.70;9.70;;;;;;;;;;106798;1278;24196;-82
2023/05/07 04:36:04;;;;;;;;;;;;;;;;;;;;;
2023/05/07 04:38:34;;;;;;;21.60;10.50;;;;;;;;;;106769;1253;27406;-76
2023/05/07 04:41:06;;;;;;;16.70;9.40;;;;;;;;;;106668;1277;24281;-79
2023/05/07 04:43:35;;;;;;;20.00;12.40;;;;;;;;;;110199;1277;22118;-75
2023/05/07 04:46:02;;;;;;;25.10;15.60;;;;;;;;;;110457;1277;22127;-76
2023/05/07 04:48:29;;;;;;;18.90;11.30;;;;;;;;;;110217;1253;22393;-75
2023/05/07 04:50:58;;;;;;;16.50;10.30;;;;;;;;;;110407;1277;22130;-74
2023/05/07 04:53:25;;;;;;;18.60;9.90;;;;;;;;;;110452;1277;22153;-74
2023/05/07 04:55:56;;;;;;;17.30;9.80;;;;;;;;;;110364;1277;22094;-74
2023/05/07 04:58:24;;;;;;;26.20;15.70;;;;;;;;;;110398;1277;22110;-75
2023/05/07 05:00:51;;;;;;;25.00;17.50;;;;;;;;;;110412;1259;22139;-74
2023/05/07 05:03:17;;;;;;;22.90;15.00;;;;;;;;;;110455;1277;22182;-74
2023/05/07 05:05:44;;;;;;;42.50;24.40;;;;;;;;;;110435;1277;22139;-75
2023/05/07 05:08:11;;;;;;;51.70;31.50;;;;;;;;;;110412;1277;22119;-80
2023/05/07 05:10:49;;;;;;;;;;;;;;;;;;;;;
2023/05/07 05:13:16;;;;;;;78.20;47.30;;;;;;;;;;110210;1277;22371;-74
2023/05/07 05:15:43;;;;;;;71.60;37.10;;;;;;;;;;110452;1276;22069;-74
2023/05/07 05:18:10;;;;;;;77.20;42.80;;;;;;;;;;110340;1276;22135;-74
2023/05/07 05:20:37;;;;;;;56.90;33.20;;;;;;;;;;110503;1269;22175;-74
2023/05/07 05:23:04;;;;;;;39.30;22.50;;;;;;;;;;110507;1276;22142;-74
2023/05/07 05:25:31;;;;;;;54.20;34.40;;;;;;;;;;110472;1276;22814;-76
2023/05/07 05:27:58;;;;;;;22.50;14.90;;;;;;;;;;110221;1276;22098;-74
2023/05/07 05:30:25;;;;;;;30.50;17.00;;;;;;;;;;110507;1253;22115;-74
2023/05/07 05:32:52;;;;;;;31.10;18.30;;;;;;;;;;110511;1276;22118;-74
2023/05/07 05:35:19;;;;;;;27.40;14.80;;;;;;;;;;110237;1276;22759;-74
2023/05/07 05:37:46;;;;;;;33.50;15.70;;;;;;;;;;110398;1277;22125;-75
2023/05/07 05:40:13;;;;;;;16.60;8.10;;;;;;;;;;110146;1260;22198;-75
2023/05/07 05:42:40;;;;;;;19.20;9.10;;;;;;;;;;110164;1278;22117;-74
2023/05/07 05:45:08;;;;;;;18.30;9.90;;;;;;;;;;110189;1278;22787;-74
2023/05/07 05:47:35;;;;;;;18.80;9.40;;;;;;;;;;110156;1278;22329;-74
2023/05/07 05:50:02;;;;;;;17.80;8.80;;;;;;;;;;110225;1254;22207;-74
2023/05/07 05:52:28;;;;;;;13.50;7.10;;;;;;;;;;110378;1278;22127;-74
2023/05/07 05:54:55;;;;;;;15.50;7.60;;;;;;;;;;110396;1278;22214;-74
2023/05/07 05:57:22;;;;;;;15.30;7.40;;;;;;;;;;108316;1278;2748597;-75
2023/05/07 05:59:49;;;;;;;12.00;6.30;;;;;;;;;;110302;1278;22354;-75
2023/05/07 06:02:16;;;;;;;12.80;5.60;;;;;;;;;;110728;1259;22133;-75
2023/05/07 06:04:46;;;;;;;19.00;7.30;;;;;;;;;;110398;1278;22033;-75
2023/05/07 06:07:14;;;;;;;17.10;9.60;;;;;;;;;;110173;1274;22230;-75
2023/05/07 06:10:13;;;;;;;19.30;11.90;;;;;;;;;;110286;1277;22485;-76
2023/05/07 06:12:53;;;;;;;42.40;32.70;;;;;;;;;;110675;1256;22829;-75
2023/05/07 06:15:39;;;;;;;36.50;29.40;;;;;;;;;;110215;1277;22563;-76
2023/05/07 06:18:13;;;;;;;27.60;18.70;;;;;;;;;;110431;1277;23030;-76
2023/05/07 06:20:48;;;;;;;21.00;9.30;;;;;;;;;;110229;1274;22105;-76
2023/05/07 06:26:16;;;;;;;20.20;12.20;;;;;;;;;;103875;1292;545938;-76
2023/05/07 06:28:55;;;;;;;13.80;7.80;;;;;;;;;;106136;1285;24183;-76
2023/05/07 06:31:33;;;;;;;68.40;25.80;;;;;;;;;;106222;1285;22876;-75
2023/05/07 06:34:16;;;;;;;73.70;34.10;;;;;;;;;;106160;1285;22628;-77
2023/05/07 06:37:15;;;;;;;32.00;16.40;;;;;;;;;;106044;1286;22541;-74
2023/05/07 06:39:55;;;;;;;39.10;18.00;;;;;;;;;;99626;1285;8821428;-76
2023/05/07 06:42:43;;;;;;;21.00;11.30;;;;;;;;;;106712;1277;25469;-79
2023/05/07 06:45:45;;;;;;;24.20;7.50;;;;;;;;;;106277;1261;22550;-79
2023/05/07 06:48:13;;;;;;;15.90;7.30;;;;;;;;;;106374;1260;24250;-75
2023/05/07 06:51:00;;;;;;;15.70;7.00;;;;;;;;;;106682;1278;22520;-77
2023/05/07 06:53:30;;;;;;;14.30;7.00;;;;;;;;;;106662;1278;22541;-75
2023/05/07 06:56:09;;;;;;;12.70;6.10;;;;;;;;;;106617;1261;22527;-78
2023/05/07 06:58:46;;;;;;;15.70;5.80;;;;;;;;;;106432;1279;24207;-76
2023/05/07 07:01:26;;;;;;;;;;;;;;;;;;;;;
2023/05/07 07:04:41;;;;;;;11.80;5.50;;;;;;;;;;106372;1279;25467;-76
2023/05/07 07:07:09;;;;;;;13.70;5.60;;;;;;;;;;106527;1260;25509;-75
2023/05/07 07:09:46;;;;;;;11.90;4.90;;;;;;;;;;106638;1278;22519;-77
2023/05/07 07:12:18;;;;;;;13.20;5.40;;;;;;;;;;106742;1278;25300;-76
2023/05/07 07:14:51;;;;;;;13.60;5.70;;;;;;;;;;106700;1278;22552;-79
2023/05/07 07:17:18;;;;;;;11.80;4.80;;;;;;;;;;106727;1259;22577;-77
2023/05/07 07:19:48;;;;;;;10.90;5.40;;;;;;;;;;106673;1279;24810;-79
2023/05/07 07:22:18;;;;;;;11.30;4.20;;;;;;;;;;106897;1274;22573;-81
2023/05/07 07:24:57;;;;;;;8.50;4.40;;;;;;;;;;106978;1274;24240;-80
2023/05/07 07:27:24;;;;;;;10.50;4.00;;;;;;;;;;107087;1273;22623;-77
2023/05/07 07:29:54;;;;;;;15.60;4.20;;;;;;;;;;107138;1273;22674;-81
2023/05/07 07:32:21;;;;;;;10.00;3.50;;;;;;;;;;107134;1273;22567;-76
2023/05/07 07:34:48;;;;;;;7.50;3.40;;;;;;;;;;106975;1273;22540;-75
2023/05/07 07:37:18;;;;;;;8.40;3.40;;;;;;;;;;107059;1256;22559;-82
2023/05/07 07:39:45;;;;;;;11.40;3.60;;;;;;;;;;107131;1275;22520;-81
2023/05/07 07:42:12;;;;;;;9.10;3.50;;;;;;;;;;106903;1275;22517;-76
2023/05/07 07:44:42;;;;;;;10.60;3.30;;;;;;;;;;106869;1275;22479;-79
2023/05/07 07:47:09;;;;;;;10.30;3.40;;;;;;;;;;107076;1274;24256;-80
2023/05/07 07:49:36;;;;;;;7.00;3.40;;;;;;;;;;106944;1265;22517;-82
2023/05/07 07:52:05;;;;;;;8.70;3.60;;;;;;;;;;107153;1274;22520;-78
2023/05/07 07:54:33;;;;;;;7.10;3.80;;;;;;;;;;107134;1273;24096;-79
2023/05/07 07:57:04;;;;;;;8.60;4.20;;;;;;;;;;107166;1257;22517;-76
2023/05/07 07:59:32;;;;;;;16.20;10.50;;;;;;;;;;106872;1275;22524;-74
2023/05/07 08:01:59;;;;;;;8.20;4.70;;;;;;;;;;106863;1275;22750;-74
2023/05/07 08:04:27;;;;;;;10.50;4.20;;;;;;;;;;107154;1275;22773;-79
2023/05/07 08:07:03;;;;;;;8.70;4.30;;;;;;;;;;107110;1251;22507;-81
2023/05/07 08:09:31;;;;;;;9.90;4.40;;;;;;;;;;107111;1274;22811;-75
2023/05/07 08:12:01;;;;;;;10.40;4.60;;;;;;;;;;106937;1262;23908;-82
2023/05/07 08:14:38;;;;;;;9.60;4.80;;;;;;;;;;107138;1274;25460;-77
2023/05/07 08:17:16;;;;;;;;;;;;;;;;;;;;;
2023/05/07 08:19:45;;;;;;;8.40;4.20;;;;;;;;;;107052;1274;22558;-79
2023/05/07 08:22:13;;;;;;;9.70;4.10;;;;;;;;;;106958;1275;24243;-76
2023/05/07 08:24:40;;;;;;;10.90;3.90;;;;;;;;;;106926;1275;22535;-76
2023/05/07 08:27:09;;;;;;;7.70;3.70;;;;;;;;;;107087;1251;24199;-76
2023/05/07 08:29:36;;;;;;;9.50;3.60;;;;;;;;;;106919;1274;24224;-82
2023/05/07 08:32:03;;;;;;;10.40;3.30;;;;;;;;;;107198;1274;25454;-74
2023/05/07 08:34:30;;;;;;;11.60;4.30;;;;;;;;;;106978;1274;25262;-77
2023/05/07 08:37:03;;;;;;;8.70;3.40;;;;;;;;;;107109;1274;24319;-75
2023/05/07 08:39:56;;;;;;;11.50;3.40;;;;;;;;;;110674;1256;22097;-74
2023/05/07 08:42:27;;;;;;;9.00;3.90;;;;;;;;;;110581;1275;22388;-75
2023/05/07 08:44:57;;;;;;;6.50;3.40;;;;;;;;;;110593;1275;22105;-74
2023/05/07 08:47:24;;;;;;;7.70;3.20;;;;;;;;;;110662;1275;22154;-74
2023/05/07 08:49:54;;;;;;;8.30;3.70;;;;;;;;;;110662;1255;22250;-75
2023/05/07 08:52:21;;;;;;;6.80;3.60;;;;;;;;;;110597;1274;22930;-74
2023/05/07 08:54:48;;;;;;;11.80;4.20;;;;;;;;;;110626;1273;22219;-74
2023/05/07 08:57:15;;;;;;;8.90;4.30;;;;;;;;;;110652;1273;22107;-74
2023/05/07 08:59:42;;;;;;;14.90;6.70;;;;;;;;;;110613;1256;22518;-74
2023/05/07 09:02:09;;;;;;;13.80;6.90;;;;;;;;;;110463;1275;22198;-75
2023/05/07 09:04:37;;;;;;;15.20;11.50;;;;;;;;;;110650;1275;22343;-75
2023/05/07 09:07:05;;;;;;;11.90;8.30;;;;;;;;;;110626;1275;22170;-74
2023/05/07 09:09:33;;;;;;;12.70;8.30;;;;;;;;;;110607;1258;22380;-74
2023/05/07 09:12:01;;;;;;;10.80;6.90;;;;;;;;;;110639;1274;22140;-74
2023/05/07 09:14:30;;;;;;;11.10;8.00;;;;;;;;;;110584;1274;22603;-75
2023/05/07 09:16:57;;;;;;;14.80;9.20;;;;;;;;;;110634;1274;22295;-74
2023/05/07 09:19:24;;;;;;;12.30;8.30;;;;;;;;;;110662;1256;22930;-75
2023/05/07 09:22:01;;;;;;;9.80;5.10;;;;;;;;;;110601;1275;22135;-74
2023/05/07 09:24:34;;;;;;;12.60;7.20;;;;;;;;;;110374;1275;22474;-74
2023/05/07 09:27:02;;;;;;;13.90;9.30;;;;;;;;;;110647;1275;22120;-74
2023/05/07 09:29:30;;;;;;;9.60;6.20;;;;;;;;;;110766;1255;22489;-75
2023/05/07 09:31:56;;;;;;;16.90;9.60;;;;;;;;;;110613;1273;22111;-74
2023/05/07 09:34:24;;;;;;;13.70;6.00;;;;;;;;;;110633;1274;22782;-76
2023/05/07 09:36:51;;;;;;;12.30;5.10;;;;;;;;;;110654;1271;22942;-74
2023/05/07 09:39:18;;;;;;;8.00;4.30;;;;;;;;;;110657;1253;22124;-74
2023/05/07 09:41:45;;;;;;;7.60;3.70;;;;;;;;;;110674;1274;22181;-74
2023/05/07 09:44:21;;;;;;;9.20;4.40;;;;;;;;;;110534;1274;22841;-75
2023/05/07 09:46:54;;;;;;;10.40;4.60;;;;;;;;;;110650;1274;23110;-74
2023/05/07 09:49:25;;;;;;;17.20;8.10;;;;;;;;;;110726;1249;22984;-75
2023/05/07 09:51:59;;;;;;;11.70;5.70;;;;;;;;;;110674;1273;22112;-74
2023/05/07 09:54:28;;;;;;;9.40;4.90;;;;;;;;;;110653;1260;22096;-74
2023/05/07 09:56:56;;;;;;;11.70;4.80;;;;;;;;;;110684;1273;22199;-74
2023/05/07 09:59:25;;;;;;;10.70;4.00;;;;;;;;;;110660;1251;22146;-74
2023/05/07 10:01:56;;;;;;;8.30;4.10;;;;;;;;;;110355;1274;22072;-74
2023/05/07 10:04:23;;;;;;;7.80;3.70;;;;;;;;;;110611;1274;22279;-74
2023/05/07 10:06:50;;;;;;;9.30;3.70;;;;;;;;;;110603;1274;22202;-75
2023/05/07 10:09:18;;;;;;;9.00;4.10;;;;;;;;;;110615;1274;22297;-75
2023/05/07 10:11:45;;;;;;;9.90;3.40;;;;;;;;;;110829;1254;22139;-74
2023/05/07 10:14:13;;;;;;;6.30;3.40;;;;;;;;;;110706;1273;22267;-81
2023/05/07 10:16:40;;;;;;;8.00;3.90;;;;;;;;;;110670;1273;22818;-74
2023/05/07 10:19:11;;;;;;;8.70;5.30;;;;;;;;;;110795;1273;22137;-74
2023/05/07 10:21:40;;;;;;;10.00;6.10;;;;;;;;;;111016;1256;22175;-75
2023/05/07 10:24:25;;;;;;;10.70;5.00;;;;;;;;;;110669;1274;22248;-74
2023/05/07 10:26:52;;;;;;;9.90;4.70;;;;;;;;;;110659;1274;22128;-74
2023/05/07 10:29:26;;;;;;;9.10;4.90;;;;;;;;;;110647;1274;22322;-74
2023/05/07 10:32:21;;;;;;;9.80;5.20;;;;;;;;;;111073;1255;22864;-75
2023/05/07 10:34:50;;;;;;;12.30;6.50;;;;;;;;;;110667;1273;22315;-75
2023/05/07 10:37:17;;;;;;;13.50;7.50;;;;;;;;;;110737;1273;22144;-74
2023/05/07 10:39:44;;;;;;;12.90;7.90;;;;;;;;;;110651;1274;22825;-74
2023/05/07 10:42:12;;;;;;;14.10;7.30;;;;;;;;;;110653;1256;22184;-76
2023/05/07 10:44:40;;;;;;;10.20;6.40;;;;;;;;;;110612;1275;22236;-74
2023/05/07 10:47:11;;;;;;;9.60;6.10;;;;;;;;;;110595;1275;22079;-74
2023/05/07 10:49:45;;;;;;;10.20;6.70;;;;;;;;;;110668;1275;22105;-74
2023/05/07 10:52:20;;;;;;;13.10;8.00;;;;;;;;;;110649;1256;22116;-74
2023/05/07 10:55:21;;;;;;;11.40;8.30;;;;;;;;;;110668;1274;22138;-74
2023/05/07 10:58:25;;;;;;;9.80;7.00;;;;;;;;;;110671;1274;22113;-74
2023/05/07 11:00:57;;;;;;;13.30;8.00;;;;;;;;;;110596;1255;22051;-74
2023/05/07 11:03:28;;;;;;;11.90;7.60;;;;;;;;;;110606;1275;22134;-74
2023/05/07 11:06:12;;;;;;;11.90;7.80;;;;;;;;;;110517;1275;22678;-74
2023/05/07 11:08:53;;;;;;;11.30;7.00;;;;;;;;;;110663;1275;22069;-74
2023/05/07 11:11:40;;;;;;;12.90;7.70;;;;;;;;;;110822;1256;22219;-73
2023/05/07 11:14:31;;;;;;;13.50;8.00;;;;;;;;;;110671;1274;22143;-75
2023/05/07 11:17:06;;;;;;;17.70;8.40;;;;;;;;;;110672;1274;22279;-74
2023/05/07 11:19:53;;;;;;;17.90;9.30;;;;;;;;;;110624;1274;23093;-74
2023/05/07 11:22:42;;;;;;;17.30;9.90;;;;;;;;;;110817;1259;22132;-74
2023/05/07 11:25:25;;;;;;;19.20;9.10;;;;;;;;;;110604;1275;22116;-75
2023/05/07 11:28:19;;;;;;;12.80;7.30;;;;;;;;;;110661;1275;21979;-74
2023/05/07 11:30:52;;;;;;;13.90;7.40;;;;;;;;;;110598;1274;22844;-74
2023/05/07 11:33:20;;;;;;;12.50;7.90;;;;;;;;;;110652;1256;22117;-74
2023/05/07 11:35:47;;;;;;;14.10;8.00;;;;;;;;;;110643;1274;22309;-74
2023/05/07 11:38:15;;;;;;;11.50;7.40;;;;;;;;;;110637;1275;22840;-75
2023/05/07 11:40:49;;;;;;;13.30;7.90;;;;;;;;;;110693;1274;22210;-74
2023/05/07 11:43:16;;;;;;;14.60;7.80;;;;;;;;;;110827;1256;22883;-74
2023/05/07 11:45:44;;;;;;;13.70;8.40;;;;;;;;;;110484;1275;22106;-74
2023/05/07 11:48:11;;;;;;;15.60;8.40;;;;;;;;;;110492;1276;22168;-74
2023/05/07 11:50:50;;;;;;;20.20;8.00;;;;;;;;;;110668;1276;22738;-75
2023/05/07 11:53:17;;;;;;;12.90;8.60;;;;;;;;;;110663;1257;22099;-74
2023/05/07 11:55:44;;;;;;;11.10;7.60;;;;;;;;;;110648;1275;22307;-74
2023/05/07 11:58:12;;;;;;;13.30;6.40;;;;;;;;;;110633;1275;22152;-74
2023/05/07 12:00:38;;;;;;;14.10;5.80;;;;;;;;;;110671;1275;22970;-75
2023/05/07 12:03:05;;;;;;;9.60;5.60;;;;;;;;;;110802;1256;22111;-75
2023/05/07 12:05:32;;;;;;;14.10;5.90;;;;;;;;;;110706;1275;22081;-76
2023/05/07 12:07:59;;;;;;;12.10;6.30;;;;;;;;;;110328;1275;22839;-75
2023/05/07 12:10:25;;;;;;;8.40;5.10;;;;;;;;;;110639;1275;22112;-74
2023/05/07 12:12:52;;;;;;;8.00;4.80;;;;;;;;;;110824;1256;22112;-75
2023/05/07 12:15:22;;;;;;;8.70;4.90;;;;;;;;;;110651;1275;21942;-74
2023/05/07 12:17:50;;;;;;;8.90;4.60;;;;;;;;;;110684;1275;22878;-75
2023/05/07 12:20:17;;;;;;;7.30;4.10;;;;;;;;;;110639;1274;22270;-76
2023/05/07 12:22:43;;;;;;;7.90;4.20;;;;;;;;;;110721;1257;22775;-75
2023/05/07 12:25:10;;;;;;;8.70;4.20;;;;;;;;;;110591;1275;22898;-75
2023/05/07 12:27:40;;;;;;;7.90;4.10;;;;;;;;;;110639;1275;22682;-75
2023/05/07 12:30:09;;;;;;;7.50;3.90;;;;;;;;;;111066;1265;22120;-75
2023/05/07 12:32:36;;;;;;;7.60;3.80;;;;;;;;;;110721;1251;22909;-75
2023/05/07 12:35:05;;;;;;;7.50;4.40;;;;;;;;;;110641;1265;22095;-75
2023/05/07 12:37:32;;;;;;;8.50;4.40;;;;;;;;;;110472;1275;22108;-76
2023/05/07 12:40:06;;;;;;;8.00;4.10;;;;;;;;;;110600;1275;22565;-76
2023/05/07 12:42:37;;;;;;;8.50;3.60;;;;;;;;;;110600;1254;22125;-78
2023/05/07 12:45:08;;;;;;;9.10;4.30;;;;;;;;;;110337;1276;21951;-75
2023/05/07 12:47:35;;;;;;;7.80;3.90;;;;;;;;;;110470;1275;22815;-75
2023/05/07 12:50:02;;;;;;;8.00;4.20;;;;;;;;;;110314;1276;23027;-75
2023/05/07 12:52:31;;;;;;;6.80;3.80;;;;;;;;;;110635;1254;22090;-76
2023/05/07 12:55:04;;;;;;;7.40;3.50;;;;;;;;;;111039;1257;22157;-76
2023/05/07 12:57:37;;;;;;;7.40;3.90;;;;;;;;;;110590;1275;22058;-75
2023/05/07 13:00:04;;;;;;;8.90;4.50;;;;;;;;;;110469;1275;22158;-75
2023/05/07 13:02:34;;;;;;;7.90;4.10;;;;;;;;;;110581;1275;22077;-76
2023/05/07 13:05:01;;;;;;;9.80;4.40;;;;;;;;;;110841;1260;22106;-76
2023/05/07 13:07:28;;;;;;;6.70;3.90;;;;;;;;;;110461;1276;22758;-76
2023/05/07 13:09:55;;;;;;;7.60;4.00;;;;;;;;;;110646;1276;22118;-76
2023/05/07 13:12:22;;;;;;;6.80;3.50;;;;;;;;;;110638;1276;22873;-76
2023/05/07 13:14:49;;;;;;;8.00;3.70;;;;;;;;;;110829;1257;22166;-76
2023/05/07 13:17:16;;;;;;;8.10;4.10;;;;;;;;;;110625;1275;22094;-76
2023/05/07 13:19:43;;;;;;;6.70;4.00;;;;;;;;;;110650;1275;22083;-76
2023/05/07 13:22:10;;;;;;;8.80;3.70;;;;;;;;;;110482;1275;22812;-75
2023/05/07 13:24:38;;;;;;;9.50;3.80;;;;;;;;;;110611;1257;22115;-75
2023/05/07 13:27:05;;;;;;;9.80;3.80;;;;;;;;;;110464;1276;22094;-76
2023/05/07 13:29:32;;;;;;;11.00;4.60;;;;;;;;;;110655;1276;23199;-76
2023/05/07 13:31:58;;;;;;;15.00;5.10;;;;;;;;;;110693;1276;22744;-75
2023/05/07 13:34:26;;;;;;;12.30;4.50;;;;;;;;;;110708;1266;22165;-76
2023/05/07 13:36:56;;;;;;;12.60;4.80;;;;;;;;;;110595;1275;22121;-76
2023/05/07 13:39:33;;;;;;;10.70;4.10;;;;;;;;;;110638;1276;22112;-76
2023/05/07 13:42:10;;;;;;;9.70;5.20;;;;;;;;;;110579;1276;22120;-76
2023/05/07 13:44:39;;;;;;;10.70;4.60;;;;;;;;;;110704;1258;22109;-75
2023/05/07 13:47:07;;;;;;;9.40;4.70;;;;;;;;;;110332;1276;22100;-75
2023/05/07 13:49:34;;;;;;;9.10;4.70;;;;;;;;;;110653;1276;22099;-75
2023/05/07 13:52:01;;;;;;;9.70;5.70;;;;;;;;;;110614;1276;22282;-76
2023/05/07 13:54:28;;;;;;;10.40;6.40;;;;;;;;;;110390;1260;22198;-75
2023/05/07 13:56:57;;;;;;;17.40;13.20;;;;;;;;;;110623;1276;22290;-76
2023/05/07 14:13:34;;;;;;;9.40;5.30;;;;;;;;;;109464;1292;22145;-75
2023/05/07 14:16:04;;;;;;;10.20;5.80;;;;;;;;;;109634;1274;22834;-75
2023/05/07 14:18:40;;;;;;;13.20;4.40;;;;;;;;;;109472;1292;22952;-75
2023/05/07 14:21:10;;;;;;;7.30;3.40;;;;;;;;;;109507;1292;22252;-76
2023/05/07 14:23:36;;;;;;;11.90;4.50;;;;;;;;;;109491;1292;22448;-76
2023/05/07 14:26:03;;;;;;;10.00;4.00;;;;;;;;;;109573;1273;22372;-75
2023/05/07 14:28:30;;;;;;;9.90;4.00;;;;;;;;;;109263;1292;21993;-75
2023/05/07 14:31:20;;;;;;;;;;;;;;;;;;;;;
2023/05/07 14:33:50;;;;;;;7.20;3.20;;;;;;;;;;109272;1292;22248;-76
2023/05/07 14:36:31;;;;;;;9.10;3.80;;;;;;;;;;109522;1273;22165;-75
2023/05/07 14:38:59;;;;;;;6.30;3.00;;;;;;;;;;109440;1286;22146;-76
2023/05/07 14:41:26;;;;;;;11.10;4.20;;;;;;;;;;109790;1286;22159;-76
2023/05/07 14:43:54;;;;;;;9.80;4.00;;;;;;;;;;109889;1286;22213;-77
2023/05/07 14:46:23;;;;;;;7.90;3.80;;;;;;;;;;110115;1267;22762;-76
2023/05/07 14:48:51;;;;;;;7.70;3.40;;;;;;;;;;110456;1277;22838;-75
2023/05/07 14:51:18;;;;;;;7.70;3.60;;;;;;;;;;110470;1277;22319;-76
2023/05/07 14:53:45;;;;;;;10.00;4.30;;;;;;;;;;110432;1276;22815;-75
2023/05/07 14:56:13;;;;;;;8.30;4.40;;;;;;;;;;110304;1261;22163;-80
2023/05/07 14:58:41;;;;;;;8.70;4.30;;;;;;;;;;110185;1278;22218;-76
2023/05/07 15:01:08;;;;;;;7.90;4.00;;;;;;;;;;110290;1278;22065;-76
2023/05/07 15:03:35;;;;;;;8.10;3.80;;;;;;;;;;110448;1278;22403;-75
2023/05/07 15:06:03;;;;;;;7.90;3.70;;;;;;;;;;110453;1257;22129;-76
2023/05/07 15:08:30;;;;;;;8.00;4.10;;;;;;;;;;110299;1277;22163;-76
2023/05/07 15:10:58;;;;;;;7.90;4.00;;;;;;;;;;110460;1277;22867;-76
2023/05/07 15:13:27;;;;;;;9.20;3.80;;;;;;;;;;110452;1278;22877;-76
2023/05/07 15:15:55;;;;;;;7.80;4.40;;;;;;;;;;110456;1254;22008;-75
2023/05/07 15:18:23;;;;;;;8.70;3.60;;;;;;;;;;110417;1278;22223;-76
2023/05/07 15:20:51;;;;;;;7.70;4.10;;;;;;;;;;110303;1278;22561;-75
2023/05/07 15:23:19;;;;;;;7.70;3.50;;;;;;;;;;110422;1278;22168;-75